Time;durP1;ratioP1;P1;durP2;ratioP2;P2;SDS_P1;SDS_P2;PMS_P1;PMS_P2;Temp;Humidity;BMP_temperature;BMP_pressure;BME280_temperature;BME280_humidity;BME280_pressure;Samples;Min_cycle;Max_cycle;Signal;HPM_P1;HPM_P2
2023/08/14 00:01:14;;;;;;;7.38;4.13;;;19.50;99.90;;;19.34;100.00;97307.34;5052149;28;20037;-38
2023/08/14 00:03:39;;;;;;;7.57;4.95;;;19.40;99.90;;;19.33;100.00;97306.50;5047580;28;20129;-38
2023/08/14 00:06:05;;;;;;;5.50;4.53;;;19.40;99.90;;;19.37;100.00;97304.44;5069472;22;20028;-38
2023/08/14 00:08:31;;;;;;;6.07;4.15;;;19.40;99.90;;;19.38;100.00;97300.78;5016932;28;20108;-38
2023/08/14 00:10:56;;;;;;;6.53;4.28;;;19.50;99.90;;;19.37;100.00;97299.09;5019394;28;20513;-38
2023/08/14 00:13:23;;;;;;;6.82;4.15;;;19.50;99.90;;;19.46;100.00;97309.09;5019328;28;20028;-37
2023/08/14 00:15:49;;;;;;;5.22;4.47;;;19.50;99.90;;;19.50;100.00;97310.56;5013527;28;20461;-38
2023/08/14 00:18:15;;;;;;;4.80;4.30;;;19.60;99.90;;;19.52;100.00;97307.78;5014686;28;20060;-38
2023/08/14 00:20:41;;;;;;;5.47;4.90;;;19.60;99.90;;;19.54;100.00;97306.72;5014684;28;20491;-38
2023/08/14 00:23:06;;;;;;;6.97;4.63;;;19.60;99.90;;;19.55;100.00;97304.88;5020456;28;20569;-37
2023/08/14 00:25:33;;;;;;;4.60;4.15;;;19.60;99.90;;;19.52;100.00;97303.28;5018354;28;20393;-38
2023/08/14 00:27:58;;;;;;;6.35;4.57;;;19.60;99.90;;;19.57;100.00;97308.28;5020570;28;20320;-37
2023/08/14 00:30:24;;;;;;;5.70;4.10;;;19.70;99.90;;;19.60;100.00;97316.94;5019093;28;20048;-37
2023/08/14 00:32:50;;;;;;;5.13;4.38;;;19.70;99.90;;;19.63;100.00;97307.81;5017247;28;20569;-38
2023/08/14 00:35:16;;;;;;;7.70;4.38;;;19.70;99.90;;;19.68;100.00;97308.34;5015564;28;20057;-37
2023/08/14 00:37:44;;;;;;;5.07;4.47;;;19.70;99.90;;;19.71;100.00;97313.47;5021049;28;20928;-38
2023/08/14 00:40:11;;;;;;;6.00;4.35;;;19.80;99.90;;;19.73;100.00;97314.22;5019556;28;20104;-38
2023/08/14 00:42:39;;;;;;;4.32;3.92;;;19.80;99.90;;;19.77;100.00;97310.34;5017351;28;20104;-38
2023/08/14 00:45:06;;;;;;;9.27;4.55;;;19.80;99.90;;;19.76;100.00;97299.78;5030683;28;20033;-39
2023/08/14 00:47:36;;;;;;;5.03;4.18;;;19.90;99.90;;;19.83;100.00;97311.72;5013667;28;20061;-40
2023/08/14 00:50:06;;;;;;;4.53;4.13;;;19.90;99.90;;;19.88;100.00;97303.31;5011265;28;20466;-38
2023/08/14 00:52:41;;;;;;;6.93;4.40;;;19.90;99.90;;;19.86;100.00;97292.75;5011437;28;20049;-38
2023/08/14 00:55:11;;;;;;;7.45;4.10;;;20.00;99.90;;;19.96;100.00;97298.25;5017923;28;20085;-38
2023/08/14 00:57:38;;;;;;;4.95;4.13;;;20.00;99.90;;;20.00;100.00;97292.53;5012795;28;20030;-38
2023/08/14 01:00:05;;;;;;;6.50;4.45;;;20.10;99.90;;;20.03;100.00;97281.59;5018959;28;20075;-38
2023/08/14 01:02:32;;;;;;;5.18;4.57;;;20.10;99.90;;;20.06;100.00;97285.84;5012856;28;20049;-38
2023/08/14 01:04:58;;;;;;;4.88;4.38;;;20.20;99.90;;;20.09;100.00;97288.31;5031188;28;20430;-39
2023/08/14 01:07:24;;;;;;;5.10;4.60;;;20.20;99.90;;;20.10;100.00;97281.13;5011417;28;20025;-38
2023/08/14 01:09:50;;;;;;;6.00;4.40;;;20.20;99.90;;;20.06;100.00;97277.81;5009939;28;20026;-38
2023/08/14 01:12:46;;;;;;;5.78;4.47;;;20.20;99.90;;;20.10;100.00;97291.81;5012235;28;20049;-38
2023/08/14 01:15:34;;;;;;;5.57;4.10;;;20.20;99.90;;;20.10;100.00;97292.69;5018089;28;20087;-38
2023/08/14 01:18:03;;;;;;;5.70;4.30;;;20.20;99.90;;;20.03;100.00;97280.75;5030885;28;20048;-38
2023/08/14 01:20:32;;;;;;;6.88;4.28;;;20.20;99.90;;;20.06;100.00;97285.00;5032010;28;20040;-38
2023/08/14 01:23:16;;;;;;;5.35;4.10;;;20.20;99.90;;;20.10;100.00;97291.81;5017212;28;20239;-37
2023/08/14 01:25:43;;;;;;;4.90;4.30;;;20.20;99.90;;;20.10;100.00;97299.84;5015480;28;20029;-39
2023/08/14 01:28:09;;;;;;;6.60;4.80;;;20.20;99.90;;;20.09;100.00;97299.00;5020176;28;20789;-38
2023/08/14 01:30:35;;;;;;;4.65;4.15;;;20.20;99.90;;;20.11;100.00;97304.25;5017262;28;20163;-38
2023/08/14 01:33:01;;;;;;;6.53;4.57;;;20.20;99.90;;;20.12;100.00;97301.47;5018460;28;20029;-38
2023/08/14 01:35:38;;;;;;;5.38;3.70;;;20.20;99.90;;;20.05;100.00;97300.22;5018095;28;20037;-38
2023/08/14 01:38:19;;;;;;;6.45;4.10;;;20.20;99.90;;;20.15;100.00;97337.84;5016501;28;20033;-38
2023/08/14 01:41:09;;;;;;;5.53;4.35;;;20.20;99.90;;;20.17;100.00;97346.59;5016698;28;20075;-39
2023/08/14 01:43:40;;;;;;;12.05;5.93;;;20.20;99.90;;;20.18;100.00;97333.09;5015577;28;20025;-38
2023/08/14 01:46:09;;;;;;;6.43;5.05;;;20.30;99.90;;;20.20;100.00;97319.59;5016636;28;20033;-38
2023/08/14 01:48:37;;;;;;;6.63;5.70;;;20.30;99.90;;;20.22;100.00;97306.94;5015211;28;20124;-37
2023/08/14 01:51:03;;;;;;;7.88;5.18;;;20.30;99.90;;;20.21;100.00;97295.38;5017162;28;20044;-37
2023/08/14 01:53:32;;;;;;;7.13;4.93;;;20.30;99.90;;;20.23;100.00;97281.88;5018936;28;20312;-37
2023/08/14 01:55:58;;;;;;;6.68;4.55;;;20.30;99.90;;;20.24;100.00;97280.88;5011531;28;20112;-38
2023/08/14 01:58:24;;;;;;;6.53;4.55;;;20.30;99.90;;;20.25;100.00;97284.44;5011473;28;20465;-38
2023/08/14 02:00:49;;;;;;;5.32;4.45;;;20.30;99.90;;;20.24;100.00;97294.28;5014406;28;20398;-37
2023/08/14 02:03:15;;;;;;;5.63;4.25;;;20.30;99.90;;;20.23;100.00;97289.06;5012411;28;20076;-37
2023/08/14 02:05:41;;;;;;;8.77;5.15;;;20.30;99.90;;;20.20;100.00;97282.09;5014243;28;20029;-38
2023/08/14 02:08:06;;;;;;;6.05;4.22;;;20.30;99.90;;;20.18;100.00;97281.38;5012642;28;20042;-37
2023/08/14 02:10:32;;;;;;;4.97;4.18;;;20.30;99.90;;;20.15;100.00;97284.28;5012934;28;20048;-37
2023/08/14 02:12:58;;;;;;;4.70;3.75;;;20.30;99.90;;;20.12;100.00;97265.81;5013270;28;20034;-38
2023/08/14 02:15:23;;;;;;;4.13;3.53;;;20.20;99.90;;;20.08;100.00;97261.66;5012194;28;20064;-37
2023/08/14 02:17:49;;;;;;;4.60;3.78;;;20.20;99.90;;;20.03;100.00;97254.84;5004510;28;20067;-38
2023/08/14 02:20:16;;;;;;;5.47;3.17;;;20.10;99.90;;;19.98;100.00;97257.00;5014158;28;20033;-38
2023/08/14 02:22:42;;;;;;;6.18;3.17;;;20.10;99.90;;;19.95;100.00;97251.88;5009648;28;20045;-38
2023/08/14 02:25:08;;;;;;;3.75;3.35;;;20.10;99.90;;;19.89;100.00;97239.00;5011365;28;20037;-38
2023/08/14 02:27:33;;;;;;;4.75;3.53;;;20.00;99.90;;;19.89;100.00;97247.03;5012409;28;20044;-38
2023/08/14 02:29:59;;;;;;;4.35;3.20;;;20.00;99.90;;;19.79;100.00;97233.50;5012031;28;20119;-38
2023/08/14 02:32:25;;;;;;;6.60;3.47;;;20.00;99.90;;;19.85;100.00;97250.91;5016664;28;20050;-38
2023/08/14 02:34:55;;;;;;;4.38;3.40;;;19.90;99.90;;;19.77;100.00;97231.91;5016767;28;20025;-37
2023/08/14 02:37:21;;;;;;;6.38;3.47;;;19.90;99.90;;;19.76;100.00;97224.88;5017801;28;20108;-38
2023/08/14 02:39:47;;;;;;;4.32;3.20;;;19.90;99.90;;;19.74;100.00;97222.31;5019294;28;20117;-38
2023/08/14 02:42:17;;;;;;;5.03;3.45;;;19.80;99.90;;;19.71;100.00;97209.13;5020914;28;20079;-37
2023/08/14 02:44:43;;;;;;;3.22;2.92;;;19.80;99.90;;;19.69;100.00;97216.41;5030985;28;20030;-37
2023/08/14 02:47:09;;;;;;;4.05;3.28;;;19.80;99.90;;;19.67;100.00;97225.50;5016064;28;20033;-38
2023/08/14 02:49:35;;;;;;;5.78;3.35;;;19.80;99.90;;;19.63;100.00;97235.59;5031491;28;20036;-37
2023/08/14 02:52:01;;;;;;;5.50;3.78;;;19.80;99.90;;;19.60;100.00;97234.03;5022247;28;20032;-37
2023/08/14 02:54:26;;;;;;;5.32;3.75;;;19.70;99.90;;;19.60;100.00;97236.69;5019375;28;20121;-37
2023/08/14 02:56:52;;;;;;;8.65;4.10;;;19.70;99.90;;;19.59;100.00;97252.84;5019453;28;20217;-37
2023/08/14 02:59:18;;;;;;;4.93;3.95;;;19.70;99.90;;;19.56;100.00;97251.28;5021455;28;20048;-37
2023/08/14 03:01:44;;;;;;;4.00;3.30;;;19.70;99.90;;;19.50;100.00;97254.41;5017808;28;20030;-37
2023/08/14 03:04:10;;;;;;;5.10;3.78;;;19.70;99.90;;;19.48;100.00;97275.06;5016956;28;20065;-37
2023/08/14 03:06:35;;;;;;;6.78;3.28;;;19.60;99.90;;;19.39;100.00;97247.19;5012601;28;20448;-37
2023/08/14 03:09:02;;;;;;;3.45;3.15;;;19.60;99.90;;;19.30;100.00;97258.56;5012532;28;20285;-38
2023/08/14 03:11:28;;;;;;;5.53;3.08;;;19.50;99.90;;;19.25;100.00;97253.56;5013607;28;20401;-37
2023/08/14 03:13:54;;;;;;;4.95;3.00;;;19.40;99.90;;;19.14;100.00;97224.13;5015993;28;20035;-37
2023/08/14 03:16:19;;;;;;;3.28;2.78;;;19.30;99.90;;;19.08;100.00;97224.59;5014968;28;20048;-37
2023/08/14 03:18:45;;;;;;;3.90;3.40;;;19.30;99.90;;;19.06;100.00;97227.38;5018822;28;20432;-37
2023/08/14 03:21:11;;;;;;;5.03;3.45;;;19.20;99.90;;;19.00;100.00;97227.81;5020343;28;20041;-37
2023/08/14 03:23:37;;;;;;;5.38;3.70;;;19.10;99.90;;;18.96;100.00;97231.69;5017364;28;20040;-37
2023/08/14 03:26:04;;;;;;;4.05;3.15;;;19.10;99.90;;;18.92;100.00;97224.84;5017932;28;20547;-37
2023/08/14 03:28:30;;;;;;;5.63;3.30;;;19.00;99.90;;;18.86;100.00;97234.19;5020855;28;20375;-37
2023/08/14 03:30:55;;;;;;;4.97;3.13;;;19.00;99.90;;;18.79;100.00;97246.25;5020516;28;20040;-37
2023/08/14 03:33:21;;;;;;;4.05;3.20;;;19.00;99.90;;;18.74;100.00;97251.06;5020427;28;20551;-37
2023/08/14 03:35:47;;;;;;;3.40;2.90;;;18.90;99.90;;;18.69;100.00;97242.53;5018498;28;20053;-37
2023/08/14 03:38:12;;;;;;;3.22;2.70;;;18.80;99.90;;;18.61;100.00;97251.09;5018509;28;20040;-37
2023/08/14 03:40:38;;;;;;;3.60;2.92;;;18.70;99.90;;;18.54;100.00;97243.63;5011344;28;20053;-37
2023/08/14 03:43:04;;;;;;;5.10;3.15;;;18.70;99.90;;;18.48;100.00;97245.78;5020062;28;20041;-37
2023/08/14 03:45:29;;;;;;;5.80;3.55;;;18.60;99.90;;;18.44;100.00;97248.78;5019192;28;20030;-37
2023/08/14 03:47:55;;;;;;;5.88;3.10;;;18.60;99.90;;;18.40;100.00;97257.97;5013995;28;20521;-37
2023/08/14 03:50:21;;;;;;;6.93;3.85;;;18.60;99.90;;;18.33;100.00;97236.19;5011430;28;20033;-38
2023/08/14 03:52:48;;;;;;;5.50;3.80;;;18.50;99.90;;;18.34;100.00;97251.25;5011011;28;20563;-37
2023/08/14 03:55:14;;;;;;;4.10;3.50;;;18.50;99.90;;;18.27;100.00;97245.50;5010384;28;20029;-37
2023/08/14 03:57:40;;;;;;;5.38;3.50;;;18.40;99.90;;;18.26;100.00;97254.44;5011857;28;20494;-37
2023/08/14 04:00:06;;;;;;;9.18;3.92;;;18.40;99.90;;;18.22;100.00;97257.47;5010098;28;20034;-37
2023/08/14 04:02:32;;;;;;;3.88;3.42;;;18.40;99.90;;;18.19;100.00;97252.34;5012631;28;20064;-37
2023/08/14 04:04:58;;;;;;;6.78;3.20;;;18.30;99.90;;;18.14;100.00;97249.97;5010533;28;20457;-37
2023/08/14 04:07:24;;;;;;;3.60;3.17;;;18.30;99.90;;;18.06;100.00;97231.00;5010052;28;20041;-37
2023/08/14 04:09:49;;;;;;;4.53;3.28;;;18.30;99.90;;;18.07;100.00;97243.34;5010963;28;20520;-37
2023/08/14 04:12:15;;;;;;;3.50;2.70;;;18.20;99.90;;;18.05;100.00;97237.28;5010281;28;20064;-37
2023/08/14 04:14:41;;;;;;;7.07;2.90;;;18.20;99.90;;;18.02;100.00;97241.03;5010932;28;20386;-37
2023/08/14 04:17:06;;;;;;;6.07;3.55;;;18.20;99.90;;;18.01;100.00;97249.97;5007676;28;20406;-37
2023/08/14 04:19:32;;;;;;;5.65;3.08;;;18.20;99.90;;;17.96;100.00;97232.59;5010274;28;20034;-37
2023/08/14 04:21:58;;;;;;;3.92;2.83;;;18.20;99.90;;;17.99;100.00;97251.06;5011836;28;20440;-37
2023/08/14 04:24:23;;;;;;;4.00;3.38;;;18.10;99.90;;;17.98;100.00;97254.66;5011371;28;20048;-37
2023/08/14 04:26:49;;;;;;;4.22;3.25;;;18.10;99.90;;;17.98;100.00;97249.34;5009718;28;20124;-38
2023/08/14 04:29:16;;;;;;;3.70;3.15;;;18.10;99.90;;;17.96;100.00;97248.59;5012865;28;20025;-38
2023/08/14 04:31:42;;;;;;;3.53;2.85;;;18.10;99.90;;;17.86;100.00;97240.38;5010470;28;20045;-37
2023/08/14 04:34:09;;;;;;;3.25;2.58;;;18.10;99.90;;;17.93;100.00;97252.34;5012429;28;20033;-37
2023/08/14 04:36:35;;;;;;;5.20;2.97;;;18.10;99.90;;;17.94;100.00;97235.34;5025160;28;20394;-37
2023/08/14 04:39:07;;;;;;;3.05;2.67;;;18.10;99.90;;;17.96;100.00;97225.44;5010746;28;20324;-38
2023/08/14 04:41:33;;;;;;;4.65;2.92;;;18.10;99.90;;;17.97;100.00;97232.47;5009382;28;20478;-38
2023/08/14 04:43:58;;;;;;;4.70;2.70;;;18.10;99.90;;;17.91;100.00;97211.56;5010084;28;20033;-38
2023/08/14 04:46:30;;;;;;;2.45;1.85;;;18.10;99.90;;;18.01;100.00;97228.63;5023403;28;20038;-37
2023/08/14 04:48:56;;;;;;;2.83;2.53;;;18.10;99.90;;;18.03;100.00;97226.72;5009939;28;20051;-37
2023/08/14 04:51:22;;;;;;;3.38;2.45;;;18.20;99.90;;;17.98;100.00;97212.88;5010100;28;20030;-37
2023/08/14 04:53:47;;;;;;;3.17;2.30;;;18.20;99.90;;;18.05;100.00;97227.47;5011588;28;20385;-38
2023/08/14 04:56:13;;;;;;;2.97;2.50;;;18.20;99.90;;;18.05;100.00;97248.81;5019635;28;20501;-37
2023/08/14 04:58:39;;;;;;;3.45;2.25;;;18.20;99.90;;;18.05;100.00;97245.28;5018520;28;20041;-37
2023/08/14 05:01:04;;;;;;;4.35;2.08;;;18.20;99.90;;;18.05;100.00;97247.94;5011230;28;20049;-37
2023/08/14 05:03:30;;;;;;;3.03;2.50;;;18.20;99.90;;;18.03;100.00;97245.38;5012067;28;20036;-37
2023/08/14 05:05:56;;;;;;;4.35;2.88;;;18.20;99.90;;;18.09;100.00;97249.47;5010277;28;20063;-37
2023/08/14 05:08:22;;;;;;;2.97;2.75;;;18.30;99.90;;;18.17;100.00;97247.09;5012315;28;20179;-37
2023/08/14 05:10:51;;;;;;;3.75;3.03;;;18.30;99.90;;;18.25;100.00;97241.22;5011900;28;20446;-37
2023/08/14 05:13:21;;;;;;;3.70;2.80;;;18.40;99.90;;;18.31;100.00;97241.63;5011639;28;20021;-37
2023/08/14 05:15:48;;;;;;;3.97;2.67;;;18.40;99.90;;;18.41;100.00;97238.31;5014147;28;20030;-37
2023/08/14 05:18:14;;;;;;;3.53;2.38;;;18.50;99.90;;;18.57;100.00;97230.06;5011750;28;20037;-38
2023/08/14 05:20:45;;;;;;;3.08;2.50;;;18.70;99.90;;;18.74;100.00;97231.53;5009728;28;20064;-37
2023/08/14 05:23:11;;;;;;;2.90;2.60;;;18.80;99.90;;;18.89;100.00;97236.59;5012128;28;20505;-37
2023/08/14 05:25:37;;;;;;;3.85;2.22;;;19.00;99.90;;;19.03;100.00;97234.75;5009831;28;20116;-37
2023/08/14 05:28:04;;;;;;;2.13;1.95;;;19.10;99.90;;;19.16;100.00;97229.34;5009801;28;20044;-38
2023/08/14 05:30:30;;;;;;;2.83;2.00;;;19.30;99.90;;;19.34;100.00;97224.44;5012046;28;20087;-37
2023/08/14 05:32:56;;;;;;;3.95;2.10;;;19.40;99.90;;;19.48;100.00;97223.41;5008764;28;20045;-37
2023/08/14 05:35:25;;;;;;;2.38;1.98;;;19.60;99.90;;;19.65;100.00;97229.19;5009969;28;20137;-38
2023/08/14 05:37:56;;;;;;;2.90;2.25;;;19.80;99.90;;;19.80;100.00;97232.53;5010237;28;20413;-37
2023/08/14 05:40:26;;;;;;;2.78;2.28;;;19.90;99.90;;;19.92;100.00;97219.16;5010069;28;20489;-37
2023/08/14 05:43:03;;;;;;;3.55;2.40;;;20.00;99.90;;;19.97;100.00;97207.16;5012787;28;20537;-38
2023/08/14 05:45:33;;;;;;;3.70;2.42;;;20.10;99.90;;;19.98;100.00;97214.19;5010353;28;20078;-38
2023/08/14 05:48:01;;;;;;;2.58;2.25;;;20.10;99.90;;;19.96;100.00;97204.59;5016400;28;20061;-38
2023/08/14 05:50:27;;;;;;;3.80;2.35;;;20.10;99.90;;;20.03;100.00;97206.66;5015431;28;20109;-39
2023/08/14 05:52:55;;;;;;;2.33;1.98;;;20.20;99.90;;;20.10;100.00;97216.88;5009016;28;20037;-37
2023/08/14 05:55:21;;;;;;;2.25;2.05;;;20.20;99.90;;;20.11;100.00;97224.78;5010450;28;20768;-37
2023/08/14 05:57:47;;;;;;;2.38;2.17;;;20.30;99.90;;;20.15;100.00;97230.75;5008267;28;20048;-37
2023/08/14 06:00:13;;;;;;;2.70;2.30;;;20.30;99.90;;;20.09;100.00;97224.06;5007819;28;20109;-37
2023/08/14 06:02:39;;;;;;;2.67;2.10;;;20.30;99.90;;;20.17;100.00;97239.50;5011612;28;20106;-37
2023/08/14 06:05:05;;;;;;;2.88;2.40;;;20.40;99.90;;;20.16;100.00;97235.13;5009021;28;20185;-38
2023/08/14 06:07:31;;;;;;;4.72;2.20;;;20.40;99.90;;;20.19;100.00;97221.53;5008012;28;20026;-37
2023/08/14 06:09:57;;;;;;;2.58;2.20;;;20.30;99.90;;;20.21;100.00;97230.28;5008934;28;20048;-37
2023/08/14 06:12:22;;;;;;;5.15;2.65;;;20.30;99.90;;;20.18;100.00;97233.19;5005842;28;20095;-37
2023/08/14 06:14:48;;;;;;;3.65;2.45;;;20.40;99.90;;;20.21;100.00;97231.13;5008873;28;20108;-38
2023/08/14 06:17:14;;;;;;;3.42;2.25;;;20.30;99.90;;;20.14;100.00;97213.00;5009170;28;20033;-38
2023/08/14 06:19:39;;;;;;;3.42;2.33;;;20.30;99.90;;;20.16;100.00;97194.97;5012071;28;20092;-37
2023/08/14 06:22:05;;;;;;;2.30;2.10;;;20.30;99.90;;;20.18;100.00;97187.69;5010755;28;20033;-38
2023/08/14 06:24:31;;;;;;;5.10;2.78;;;20.30;99.90;;;20.20;100.00;97202.63;5006375;28;20532;-38
2023/08/14 06:26:57;;;;;;;2.42;2.22;;;20.30;99.90;;;20.20;100.00;97207.97;5003860;28;20076;-37
2023/08/14 06:29:23;;;;;;;3.47;2.13;;;20.30;99.90;;;20.18;100.00;97209.09;5011239;28;20370;-37
2023/08/14 06:31:48;;;;;;;3.53;2.42;;;20.20;99.90;;;20.14;100.00;97207.63;5013653;28;20053;-37
2023/08/14 06:34:14;;;;;;;4.50;2.58;;;20.20;99.90;;;20.11;100.00;97218.59;5014069;28;20041;-37
2023/08/14 06:36:40;;;;;;;4.53;2.50;;;20.20;99.90;;;20.09;100.00;97224.06;5010697;28;20045;-38
2023/08/14 06:39:05;;;;;;;3.60;2.05;;;20.10;99.90;;;20.06;100.00;97223.44;5015004;28;20057;-37
2023/08/14 06:41:31;;;;;;;2.55;2.20;;;20.10;99.90;;;19.99;100.00;97218.56;5031522;28;20044;-38
2023/08/14 06:43:57;;;;;;;2.95;2.20;;;20.10;99.90;;;20.12;100.00;97220.31;5012349;28;20076;-37
2023/08/14 06:46:23;;;;;;;3.80;2.50;;;20.20;99.90;;;20.13;100.00;97205.91;5012338;28;20652;-38
2023/08/14 06:48:48;;;;;;;3.55;2.25;;;20.30;99.90;;;20.34;100.00;97209.56;5017843;28;20053;-37
2023/08/14 06:51:14;;;;;;;3.67;2.50;;;20.40;99.90;;;20.46;100.00;97210.44;5009844;28;20370;-37
2023/08/14 06:53:40;;;;;;;3.00;2.53;;;20.50;99.90;;;20.63;100.00;97218.97;5010690;28;20025;-37
2023/08/14 06:56:06;;;;;;;5.75;2.72;;;20.70;99.90;;;20.76;100.00;97225.03;5009865;28;20444;-37
2023/08/14 06:58:31;;;;;;;3.83;2.55;;;20.90;99.90;;;20.87;100.00;97216.97;5016719;28;20036;-38
2023/08/14 07:00:58;;;;;;;3.40;2.50;;;21.00;99.90;;;20.99;100.00;97225.84;5013040;28;20041;-37
2023/08/14 07:03:24;;;;;;;3.00;2.30;;;21.10;99.90;;;21.15;100.00;97228.94;5004841;28;20052;-37
2023/08/14 07:05:50;;;;;;;3.35;2.40;;;21.20;99.90;;;21.33;100.00;97218.53;5013271;28;20511;-39
2023/08/14 07:08:15;;;;;;;4.10;2.70;;;21.40;99.90;;;21.53;100.00;97222.25;5010324;28;21429;-38
2023/08/14 07:10:41;;;;;;;4.20;2.50;;;21.50;99.90;;;21.79;100.00;97226.41;5012747;28;20448;-38
2023/08/14 07:13:07;;;;;;;3.08;2.25;;;21.70;99.90;;;22.00;100.00;97224.56;5012532;28;20108;-38
2023/08/14 07:15:33;;;;;;;3.33;2.50;;;21.90;99.90;;;22.20;100.00;97222.81;5007501;28;20838;-38
2023/08/14 07:17:59;;;;;;;4.20;2.22;;;22.00;99.90;;;22.45;100.00;97229.63;5012048;28;20496;-38
2023/08/14 07:20:26;;;;;;;3.17;2.42;;;22.20;99.90;;;22.65;100.00;97232.38;5016350;28;20037;-38
2023/08/14 07:22:53;;;;;;;2.95;2.30;;;22.40;99.90;;;22.85;100.00;97225.22;5014660;28;20147;-38
2023/08/14 07:25:19;;;;;;;2.45;2.22;;;22.60;99.90;;;22.97;100.00;97232.19;5016766;28;20394;-37
2023/08/14 07:27:44;;;;;;;9.00;2.10;;;22.70;99.90;;;23.11;100.00;97219.34;5025056;28;20031;-37
2023/08/14 07:30:10;;;;;;;3.00;2.28;;;22.80;99.90;;;23.15;100.00;97212.69;5018186;28;20088;-38
2023/08/14 07:32:36;;;;;;;3.63;2.40;;;22.90;99.90;;;23.33;100.00;97227.16;5020398;28;20538;-37
2023/08/14 07:35:03;;;;;;;3.03;2.30;;;23.10;99.90;;;23.46;100.00;97229.56;5018941;28;20022;-39
2023/08/14 07:37:29;;;;;;;4.68;2.25;;;23.20;99.90;;;23.53;100.00;97229.88;5020426;28;20044;-37
2023/08/14 07:39:54;;;;;;;4.55;2.63;;;23.30;99.90;;;23.57;100.00;97217.81;5018034;28;20025;-37
2023/08/14 07:42:20;;;;;;;1.98;1.75;;;23.30;99.90;;;23.64;100.00;97224.31;5023796;28;20038;-38
2023/08/14 07:44:46;;;;;;;4.10;2.33;;;23.40;99.90;;;23.74;100.00;97221.59;5024120;28;20060;-39
2023/08/14 07:47:12;;;;;;;2.45;1.73;;;23.50;99.90;;;23.79;100.00;97220.19;5027149;28;20072;-37
2023/08/14 07:49:38;;;;;;;4.22;2.63;;;23.60;99.90;;;23.82;100.00;97222.63;5022888;28;20040;-38
2023/08/14 07:52:05;;;;;;;3.38;2.25;;;23.60;99.90;;;23.85;100.00;97209.88;5025355;28;20030;-38
2023/08/14 07:54:31;;;;;;;2.95;2.10;;;23.70;99.90;;;23.81;100.00;97207.47;5021736;28;20041;-38
2023/08/14 07:56:57;;;;;;;2.97;2.35;;;23.70;99.90;;;23.90;100.00;97221.88;5014530;28;20095;-38
2023/08/14 07:59:23;;;;;;;2.20;2.00;;;23.80;99.90;;;23.89;100.00;97228.28;5021801;28;20041;-39
2023/08/14 08:01:49;;;;;;;2.40;2.20;;;23.80;99.90;;;23.90;100.00;97234.53;5024828;28;20660;-38
2023/08/14 08:04:15;;;;;;;3.53;2.05;;;23.80;99.90;;;23.89;100.00;97235.53;5020901;28;20534;-38
2023/08/14 08:06:40;;;;;;;2.50;2.15;;;23.80;99.90;;;23.94;100.00;97233.22;5021097;28;20534;-38
2023/08/14 08:09:07;;;;;;;2.72;2.25;;;23.90;99.90;;;24.02;100.00;97233.38;5027169;28;20032;-38
2023/08/14 08:11:33;;;;;;;2.67;2.20;;;23.90;99.90;;;24.00;100.00;97229.97;5026318;28;20033;-38
2023/08/14 08:13:59;;;;;;;5.93;2.10;;;23.90;99.90;;;24.07;100.00;97232.94;5023179;28;20028;-38
2023/08/14 08:16:25;;;;;;;4.43;2.50;;;24.00;99.90;;;24.06;100.00;97240.16;5020271;28;20026;-38
2023/08/14 08:18:51;;;;;;;2.85;2.38;;;24.00;99.90;;;24.12;100.00;97242.28;5021378;28;20041;-39
2023/08/14 08:21:16;;;;;;;3.33;2.40;;;24.00;99.90;;;24.14;100.00;97239.44;5025821;28;20041;-39
2023/08/14 08:23:42;;;;;;;3.05;2.30;;;24.10;99.90;;;24.22;100.00;97227.94;5028765;28;20465;-38
2023/08/14 08:26:08;;;;;;;2.55;2.30;;;24.20;99.90;;;24.40;100.00;97245.03;5025244;28;20028;-38
2023/08/14 08:28:33;;;;;;;2.60;2.00;;;24.30;99.90;;;24.46;100.00;97240.88;5020695;28;20037;-38
2023/08/14 08:30:59;;;;;;;4.10;2.75;;;24.40;99.90;;;24.52;100.00;97251.94;5029912;28;20021;-37
2023/08/14 08:33:25;;;;;;;2.75;2.17;;;24.40;99.90;;;24.54;100.00;97246.44;5027890;28;20053;-37
2023/08/14 08:35:50;;;;;;;4.15;2.50;;;24.50;99.90;;;24.55;100.00;97246.28;5028890;28;20043;-37
2023/08/14 08:38:18;;;;;;;3.45;2.38;;;24.50;99.90;;;24.60;100.00;97255.78;5023552;28;20041;-38
2023/08/14 08:40:47;;;;;;;2.50;2.25;;;24.50;99.90;;;24.68;100.00;97243.25;5029029;28;20051;-38
2023/08/14 08:43:15;;;;;;;3.40;2.30;;;24.60;99.90;;;24.76;100.00;97242.50;5025570;28;20041;-38
2023/08/14 08:45:48;;;;;;;3.10;2.30;;;24.70;99.90;;;24.89;100.00;97248.41;5024288;28;20077;-38
2023/08/14 08:48:16;;;;;;;3.15;2.13;;;24.80;99.90;;;24.98;100.00;97235.00;5030702;28;20036;-38
2023/08/14 08:50:42;;;;;;;2.97;2.15;;;24.90;99.90;;;25.11;100.00;97246.28;5028660;28;20088;-38
2023/08/14 08:53:09;;;;;;;3.60;2.00;;;25.00;99.90;;;25.20;100.00;97242.66;5029050;28;20056;-38
2023/08/14 08:55:35;;;;;;;2.67;2.03;;;25.10;99.90;;;25.30;100.00;97240.78;5028079;28;20029;-37
2023/08/14 08:58:01;;;;;;;3.42;2.20;;;25.20;99.90;;;25.46;100.00;97239.25;5023177;28;20469;-39
2023/08/14 09:00:28;;;;;;;2.83;2.13;;;25.40;99.90;;;25.55;100.00;97227.50;5022625;28;20604;-38
2023/08/14 09:02:53;;;;;;;6.45;2.50;;;25.50;99.90;;;25.66;100.00;97243.50;5029415;28;20298;-38
2023/08/14 09:05:20;;;;;;;3.20;2.55;;;25.60;99.90;;;25.81;100.00;97248.34;5020839;28;20033;-38
2023/08/14 09:07:46;;;;;;;5.55;2.40;;;25.70;99.90;;;25.86;100.00;97244.16;5016386;28;20489;-39
2023/08/14 09:10:12;;;;;;;3.53;2.00;;;25.80;99.90;;;25.98;100.00;97252.03;5022924;28;20037;-39
2023/08/14 09:12:38;;;;;;;3.58;2.30;;;25.80;99.90;;;26.03;100.00;97253.25;5024786;28;20029;-40
2023/08/14 09:15:08;;;;;;;2.60;2.40;;;25.90;99.90;;;26.04;100.00;97246.00;5024901;28;20444;-38
2023/08/14 09:17:34;;;;;;;3.97;2.53;;;26.00;99.90;;;26.03;100.00;97237.03;5020094;28;20041;-39
2023/08/14 09:20:00;;;;;;;3.35;2.65;;;26.00;99.90;;;26.08;100.00;97250.94;5024043;28;20087;-39
2023/08/14 09:22:29;;;;;;;3.45;2.63;;;26.00;99.90;;;26.13;100.00;97255.88;5032120;28;20029;-38
2023/08/14 09:24:56;;;;;;;6.18;2.60;;;26.00;99.90;;;26.19;100.00;97252.53;5026677;28;20029;-40
2023/08/14 09:27:24;;;;;;;4.47;2.53;;;26.10;99.90;;;26.26;100.00;97244.66;5024131;28;20374;-38
2023/08/14 09:29:54;;;;;;;2.72;2.28;;;26.20;99.90;;;26.28;100.00;97251.56;5027802;28;20081;-40
2023/08/14 09:32:23;;;;;;;5.43;2.97;;;26.20;99.90;;;26.36;100.00;97248.09;5018467;28;20085;-38
2023/08/14 09:35:03;;;;;;;4.75;2.90;;;26.30;99.90;;;26.53;100.00;97245.47;5032399;28;20202;-38
2023/08/14 09:37:29;;;;;;;3.95;2.72;;;26.40;99.90;;;26.52;100.00;97236.50;5026254;28;20033;-38
2023/08/14 09:40:15;;;;;;;4.32;2.78;;;26.50;99.90;;;26.47;98.84;97231.59;5030902;28;20595;-38
2023/08/14 09:42:43;;;;;;;3.55;2.58;;;26.40;99.90;;;26.59;99.38;97234.84;5026414;28;20037;-38
2023/08/14 09:45:10;;;;;;;3.53;2.72;;;26.50;99.90;;;26.65;100.00;97228.00;5025362;28;20030;-39
2023/08/14 09:47:37;;;;;;;4.00;2.70;;;26.60;99.90;;;26.82;100.00;97234.31;5023315;28;20500;-37
2023/08/14 09:50:03;;;;;;;4.47;2.65;;;26.70;99.90;;;26.86;100.00;97227.56;5027199;28;20025;-38
2023/08/14 09:52:29;;;;;;;3.97;2.55;;;26.80;99.90;;;26.93;98.57;97233.16;5020995;28;20033;-38
2023/08/14 09:54:55;;;;;;;3.78;3.08;;;26.80;99.90;;;26.93;96.19;97227.75;5029196;28;20033;-39
2023/08/14 09:57:24;;;;;;;5.85;3.30;;;26.90;99.90;;;27.04;96.66;97233.72;5023719;28;20033;-39
2023/08/14 09:59:51;;;;;;;5.35;2.67;;;26.90;99.90;;;27.02;98.32;97229.47;5030279;28;20438;-39
2023/08/14 10:02:22;;;;;;;3.10;2.75;;;27.00;99.90;;;27.05;90.01;97234.56;5030571;28;20029;-40
2023/08/14 10:04:48;;;;;;;3.92;2.70;;;27.00;99.90;;;27.05;91.21;97221.88;5026171;28;20025;-39
2023/08/14 10:07:16;;;;;;;3.90;2.42;;;27.00;99.90;;;27.18;93.67;97224.09;5042872;28;20029;-40
2023/08/14 10:09:55;;;;;;;4.03;3.28;;;27.00;99.90;;;27.18;94.98;97215.13;5022626;28;20034;-41
2023/08/14 10:12:29;;;;;;;5.53;2.85;;;27.10;99.90;;;27.27;94.83;97213.34;5025213;28;20017;-39